Time;durP1;ratioP1;P1;durP2;ratioP2;P2;SDS_P1;SDS_P2;PMS_P1;PMS_P2;Temp;Humidity;BMP_temperature;BMP_pressure;BME280_temperature;BME280_humidity;BME280_pressure;Samples;Min_cycle;Max_cycle;Signal;HPM_P1;HPM_P2
2024/01/08 00:00:57;;;;;;;19.90;11.40;;;;;;;-8.65;59.92;101464.45;111213;241;38435;-67
2024/01/08 00:03:53;;;;;;;17.10;10.50;;;;;;;-8.71;60.12;101465.96;111249;242;38526;-67
2024/01/08 00:06:32;;;;;;;19.20;11.00;;;;;;;-8.71;60.17;101475.61;111261;242;38572;-67
2024/01/08 00:09:12;;;;;;;18.70;11.20;;;;;;;-8.71;60.21;101474.08;111225;242;39511;-67
2024/01/08 00:11:54;;;;;;;19.90;11.10;;;;;;;-8.74;60.30;101475.77;111286;241;38833;-66
2024/01/08 00:14:32;;;;;;;18.70;11.20;;;;;;;-8.78;60.26;101476.18;111215;242;38873;-67
2024/01/08 00:17:10;;;;;;;18.70;10.70;;;;;;;-8.75;60.63;101475.70;111267;242;38331;-66
2024/01/08 00:19:51;;;;;;;18.40;11.30;;;;;;;-8.71;60.41;101473.57;111235;242;38285;-66
2024/01/08 00:22:29;;;;;;;19.80;11.30;;;;;;;-8.77;60.47;101476.95;111243;242;38429;-67
2024/01/08 00:25:08;;;;;;;20.80;12.20;;;;;;;-8.76;60.74;101481.02;111062;242;38611;-67
2024/01/08 00:27:48;;;;;;;19.00;10.90;;;;;;;-8.73;60.35;101480.52;111243;242;38271;-67
2024/01/08 00:30:27;;;;;;;20.20;11.10;;;;;;;-8.85;60.11;101480.24;111199;242;38646;-66
2024/01/08 00:33:00;;;;;;;;;;;;;;;-8.90;60.51;101476.06;111252;242;38348;-66
2024/01/08 00:35:35;;;;;;;21.20;12.50;;;;;;;-8.91;60.68;101475.66;111249;241;38364;-66
2024/01/08 00:38:13;;;;;;;20.30;12.00;;;;;;;-8.92;60.98;101478.48;111237;242;38322;-66
2024/01/08 00:40:50;;;;;;;27.20;14.50;;;;;;;-8.93;60.91;101474.34;111243;242;39738;-66
2024/01/08 00:43:24;;;;;;;19.30;11.80;;;;;;;-8.93;61.07;101476.66;111260;242;38544;-67
2024/01/08 00:45:59;;;;;;;20.10;12.10;;;;;;;-8.95;60.86;101482.66;111255;242;38402;-66
2024/01/08 00:48:32;;;;;;;24.20;12.20;;;;;;;-9.07;60.59;101487.91;111241;241;38744;-66
2024/01/08 00:51:06;;;;;;;21.70;12.60;;;;;;;-9.16;61.00;101491.96;111117;241;176527;-67
2024/01/08 00:53:40;;;;;;;24.70;13.30;;;;;;;-9.17;61.19;101492.02;111238;242;38566;-67
2024/01/08 00:56:18;;;;;;;27.60;14.10;;;;;;;-9.15;61.25;101495.55;111267;242;38286;-67
2024/01/08 00:58:56;;;;;;;25.70;13.90;;;;;;;-9.13;61.33;101499.86;111245;242;38642;-67
2024/01/08 01:01:35;;;;;;;22.20;11.60;;;;;;;-9.16;61.33;101499.38;111214;242;39235;-67
2024/01/08 01:04:12;;;;;;;20.40;12.20;;;;;;;-9.16;61.61;101505.11;111238;241;38530;-67
2024/01/08 01:06:48;;;;;;;19.90;11.50;;;;;;;-9.16;61.76;101507.32;111238;242;39628;-66
2024/01/08 01:09:26;;;;;;;21.20;12.10;;;;;;;-9.17;61.63;101503.73;111250;242;38370;-66
2024/01/08 01:12:01;;;;;;;19.00;10.70;;;;;;;-9.24;61.75;101512.58;111252;242;38645;-67
2024/01/08 01:14:39;;;;;;;18.90;10.90;;;;;;;-9.25;61.83;101517.72;111258;242;39220;-66
2024/01/08 01:17:17;;;;;;;18.30;11.60;;;;;;;-9.22;62.03;101517.45;111267;242;38537;-66
2024/01/08 01:19:56;;;;;;;19.60;11.40;;;;;;;-9.20;61.91;101518.68;111260;242;38593;-66
2024/01/08 01:22:31;;;;;;;19.40;11.30;;;;;;;-9.24;62.01;101514.40;111278;241;38844;-67
2024/01/08 01:25:07;;;;;;;18.70;10.70;;;;;;;-9.19;62.17;101509.98;111244;241;38586;-67
2024/01/08 01:27:43;;;;;;;19.70;11.00;;;;;;;-9.20;62.08;101514.70;111253;241;38799;-66
2024/01/08 01:30:24;;;;;;;17.80;11.40;;;;;;;-9.18;62.24;101515.13;111224;242;38422;-66
2024/01/08 01:33:05;;;;;;;22.20;12.50;;;;;;;-9.18;61.95;101522.04;111233;242;38317;-66
2024/01/08 01:35:45;;;;;;;18.50;11.50;;;;;;;-9.20;62.01;101522.13;110519;242;935696;-67
2024/01/08 01:38:24;;;;;;;21.90;12.20;;;;;;;-9.24;61.97;101526.42;111220;242;38384;-67
2024/01/08 01:41:02;;;;;;;20.60;12.40;;;;;;;-9.30;62.06;101529.74;111281;242;38491;-66
2024/01/08 01:43:40;;;;;;;19.50;11.40;;;;;;;-9.35;61.99;101533.70;111228;242;39468;-66
2024/01/08 01:46:24;;;;;;;20.40;12.00;;;;;;;-9.41;62.08;101533.99;111271;242;38312;-67
2024/01/08 01:48:58;;;;;;;16.10;11.10;;;;;;;-9.36;62.33;101532.48;111203;242;39553;-67
2024/01/08 01:51:36;;;;;;;20.00;12.00;;;;;;;-9.34;62.32;101535.30;111240;242;38555;-66
2024/01/08 01:54:14;;;;;;;18.30;11.40;;;;;;;-9.33;62.37;101537.04;111191;241;38497;-66
2024/01/08 01:56:54;;;;;;;18.40;11.50;;;;;;;-9.30;62.37;101538.73;111276;242;38854;-67
2024/01/08 01:59:30;;;;;;;18.70;11.30;;;;;;;-9.36;62.22;101545.16;111242;242;39045;-67
2024/01/08 02:02:10;;;;;;;21.90;12.90;;;;;;;-9.35;62.34;101551.13;111266;242;38521;-66
2024/01/08 02:04:52;;;;;;;20.70;11.30;;;;;;;-9.38;62.08;101550.11;111228;242;38447;-66
2024/01/08 02:07:40;;;;;;;20.40;12.60;;;;;;;-9.51;61.97;101552.99;111116;242;176547;-66
2024/01/08 02:10:20;;;;;;;19.70;11.70;;;;;;;-9.53;62.31;101548.67;111230;242;38317;-66
2024/01/08 02:12:55;;;;;;;22.70;12.70;;;;;;;-9.55;62.33;101553.77;111221;242;38599;-66
2024/01/08 02:15:30;;;;;;;19.70;11.80;;;;;;;-9.55;62.56;101556.15;111265;242;38481;-66
2024/01/08 02:18:07;;;;;;;19.30;11.30;;;;;;;-9.52;62.38;101558.36;111247;242;38556;-66
2024/01/08 02:20:44;;;;;;;19.00;11.40;;;;;;;-9.51;62.41;101561.08;111208;242;38897;-66
2024/01/08 02:23:19;;;;;;;18.90;10.60;;;;;;;-9.55;62.39;101559.98;111197;242;39052;-66
2024/01/08 02:25:56;;;;;;;18.70;11.10;;;;;;;-9.52;62.60;101566.44;111234;242;38345;-66
2024/01/08 02:28:35;;;;;;;17.00;11.10;;;;;;;-9.49;62.35;101572.89;111226;242;38306;-66
2024/01/08 02:31:15;;;;;;;19.20;11.30;;;;;;;-9.50;62.24;101581.59;111271;242;38351;-66
2024/01/08 02:33:54;;;;;;;19.40;11.90;;;;;;;-9.54;62.00;101579.83;111253;242;38688;-66
2024/01/08 02:36:32;;;;;;;18.30;11.60;;;;;;;-9.58;62.09;101586.00;111102;242;39005;-66
2024/01/08 02:39:07;;;;;;;19.80;11.50;;;;;;;-9.63;61.95;101588.72;111232;242;38224;-66
2024/01/08 02:41:44;;;;;;;18.30;11.30;;;;;;;-9.69;62.13;101589.03;111262;242;38364;-66
2024/01/08 02:44:18;;;;;;;19.30;11.90;;;;;;;-9.64;62.31;101589.51;111238;242;38727;-66
2024/01/08 02:46:55;;;;;;;20.20;11.70;;;;;;;-9.63;62.39;101591.28;111226;242;38633;-67
2024/01/08 02:49:31;;;;;;;18.60;10.70;;;;;;;-9.62;62.09;101597.09;111211;242;38679;-67
2024/01/08 02:52:08;;;;;;;17.30;10.10;;;;;;;-9.64;62.01;101599.64;111253;241;38331;-67
2024/01/08 02:54:44;;;;;;;18.90;11.40;;;;;;;-9.68;61.79;101603.77;111282;242;38379;-66
2024/01/08 02:57:19;;;;;;;20.80;11.40;;;;;;;-9.75;62.07;101603.54;111166;242;38367;-66
2024/01/08 02:59:57;;;;;;;18.20;11.50;;;;;;;-9.72;62.14;101606.41;111236;242;38383;-66
2024/01/08 03:02:37;;;;;;;18.30;11.70;;;;;;;-9.75;61.68;101611.60;111207;243;38910;-66
2024/01/08 03:05:13;;;;;;;20.70;11.70;;;;;;;-9.79;61.78;101620.29;111232;243;38775;-66
2024/01/08 03:07:49;;;;;;;19.80;12.50;;;;;;;-9.86;61.70;101623.23;111000;243;39743;-67
2024/01/08 03:10:31;;;;;;;17.60;10.20;;;;;;;-9.90;61.78;101625.88;111244;243;39207;-66
2024/01/08 03:13:11;;;;;;;17.90;11.30;;;;;;;-9.89;61.89;101625.75;111234;243;38293;-66
2024/01/08 03:15:47;;;;;;;17.40;10.50;;;;;;;-9.94;61.84;101631.98;111244;242;39950;-67
2024/01/08 03:18:24;;;;;;;17.70;11.50;;;;;;;-10.01;61.81;101633.30;111242;243;39212;-67
2024/01/08 03:21:06;;;;;;;16.50;11.10;;;;;;;-10.05;61.77;101631.64;111224;243;38337;-67
2024/01/08 03:23:40;;;;;;;17.70;10.80;;;;;;;-10.11;61.82;101636.45;111231;243;38628;-67
2024/01/08 03:26:16;;;;;;;16.70;10.40;;;;;;;-10.10;61.69;101635.50;111214;243;38078;-66
2024/01/08 03:28:51;;;;;;;16.80;11.10;;;;;;;-10.10;61.62;101639.20;111222;243;38086;-66
2024/01/08 03:31:25;;;;;;;17.20;11.30;;;;;;;-10.10;61.73;101640.07;111235;243;38840;-67
2024/01/08 03:34:03;;;;;;;18.40;11.50;;;;;;;-10.21;61.35;101645.13;111221;243;38705;-67
2024/01/08 03:36:43;;;;;;;17.40;11.00;;;;;;;-10.29;61.49;101641.07;111272;243;38557;-66
2024/01/08 03:39:22;;;;;;;19.40;11.00;;;;;;;-10.29;61.71;101644.92;111234;243;39187;-66
2024/01/08 03:41:59;;;;;;;19.00;11.50;;;;;;;-10.36;61.82;101649.70;111249;243;38596;-67
2024/01/08 03:44:40;;;;;;;19.80;11.60;;;;;;;-10.29;62.02;101655.60;111223;243;38401;-67
2024/01/08 03:47:15;;;;;;;17.80;11.30;;;;;;;-10.23;62.01;101652.25;111238;243;38301;-67
2024/01/08 03:49:50;;;;;;;18.20;12.10;;;;;;;-10.22;62.12;101656.85;111136;243;173542;-65
2024/01/08 03:52:30;;;;;;;16.80;11.20;;;;;;;-10.19;62.22;101662.42;111218;243;38424;-66
2024/01/08 03:55:09;;;;;;;16.60;11.30;;;;;;;-10.19;62.06;101663.14;111248;243;38261;-66
2024/01/08 03:57:45;;;;;;;20.20;11.90;;;;;;;-10.24;61.61;101666.67;111231;243;38334;-66
2024/01/08 04:00:21;;;;;;;15.80;11.20;;;;;;;-10.27;61.78;101666.98;111244;243;38299;-66
2024/01/08 04:02:55;;;;;;;17.70;11.70;;;;;;;-10.27;61.70;101670.40;111260;243;38467;-66
2024/01/08 04:05:33;;;;;;;17.90;11.00;;;;;;;-10.27;61.72;101675.44;111203;243;38803;-66
2024/01/08 04:08:08;;;;;;;19.30;11.70;;;;;;;-10.36;61.44;101671.31;111256;243;38516;-66
2024/01/08 04:10:47;;;;;;;20.00;11.40;;;;;;;-10.38;61.76;101671.98;111262;243;38492;-66
2024/01/08 04:13:25;;;;;;;17.50;11.60;;;;;;;-10.36;61.71;101677.69;111228;243;38380;-67
2024/01/08 04:16:01;;;;;;;16.80;10.90;;;;;;;-10.36;61.79;101681.56;111252;243;38364;-66
2024/01/08 04:18:36;;;;;;;19.40;11.20;;;;;;;-10.42;61.46;101679.04;111266;243;38834;-66
2024/01/08 04:21:13;;;;;;;17.70;11.10;;;;;;;-10.45;61.67;101679.11;111299;243;38445;-66
2024/01/08 04:23:53;;;;;;;17.60;11.00;;;;;;;-10.44;61.62;101686.01;111258;242;38583;-66
2024/01/08 04:26:36;;;;;;;16.60;10.60;;;;;;;-10.47;61.59;101691.98;111269;243;39280;-66
2024/01/08 04:29:19;;;;;;;19.70;11.60;;;;;;;-10.51;61.44;101700.52;111272;243;38378;-67
2024/01/08 04:32:01;;;;;;;16.20;11.30;;;;;;;-10.52;61.47;101702.77;111288;243;38480;-67
2024/01/08 04:34:37;;;;;;;16.30;10.90;;;;;;;-10.58;61.53;101702.22;111258;243;38836;-67
2024/01/08 04:37:16;;;;;;;16.90;10.90;;;;;;;-10.56;61.65;101705.73;111262;243;38356;-66
2024/01/08 04:39:55;;;;;;;18.90;11.20;;;;;;;-10.58;61.73;101705.73;111205;243;40561;-66
2024/01/08 04:42:31;;;;;;;16.40;11.20;;;;;;;-10.56;62.04;101707.36;111239;243;39526;-66
2024/01/08 04:45:11;;;;;;;18.00;11.40;;;;;;;-10.49;62.05;101707.73;111246;243;38418;-66
2024/01/08 04:47:45;;;;;;;17.50;11.00;;;;;;;-10.44;61.80;101709.23;110972;243;38289;-66
2024/01/08 04:50:20;;;;;;;17.60;11.00;;;;;;;-10.46;61.41;101712.13;111272;243;38362;-66
2024/01/08 04:52:57;;;;;;;19.90;11.70;;;;;;;-10.52;61.41;101713.09;111243;243;38912;-66
2024/01/08 04:55:34;;;;;;;21.80;12.00;;;;;;;-10.53;61.73;101715.16;111231;243;39255;-66
2024/01/08 04:58:11;;;;;;;21.30;11.20;;;;;;;-10.57;61.48;101720.11;111245;243;38253;-66
2024/01/08 05:00:45;;;;;;;17.20;11.00;;;;;;;-10.59;61.60;101722.20;111262;243;38332;-66
2024/01/08 05:03:21;;;;;;;28.00;16.10;;;;;;;-10.54;61.56;101717.10;111260;243;38501;-66
2024/01/08 05:06:02;;;;;;;20.40;12.60;;;;;;;-10.62;61.09;101725.16;111307;243;38798;-66
2024/01/08 05:08:41;;;;;;;17.80;11.10;;;;;;;-10.75;60.81;101733.04;111022;243;39333;-66
2024/01/08 05:11:20;;;;;;;19.00;11.60;;;;;;;-10.80;61.15;101741.64;111316;243;38272;-66
2024/01/08 05:13:54;;;;;;;;;;;;;;;-10.76;61.29;101741.95;111346;243;38352;-66
2024/01/08 05:16:37;;;;;;;18.90;13.20;;;;;;;-10.80;61.20;101744.83;111284;243;38344;-66
2024/01/08 05:19:13;;;;;;;19.50;12.00;;;;;;;-10.88;61.23;101748.66;111275;243;38328;-66
2024/01/08 05:21:49;;;;;;;16.60;11.50;;;;;;;-10.89;61.50;101755.52;111297;243;38470;-66
2024/01/08 05:24:23;;;;;;;16.30;10.80;;;;;;;-10.84;61.70;101761.79;111267;243;38267;-66
2024/01/08 05:27:04;;;;;;;17.90;11.90;;;;;;;-10.87;61.22;101765.90;111258;243;39043;-67
2024/01/08 05:29:47;;;;;;;16.90;11.20;;;;;;;-10.92;61.42;101770.70;111234;243;40444;-67
2024/01/08 05:32:24;;;;;;;17.80;11.30;;;;;;;-10.94;61.28;101768.29;111229;243;37866;-65
2024/01/08 05:35:08;;;;;;;19.60;11.30;;;;;;;-10.96;61.30;101767.36;111249;243;38361;-65
2024/01/08 05:37:52;;;;;;;16.20;10.80;;;;;;;-11.04;61.09;101772.34;111242;243;38404;-65
2024/01/08 05:40:29;;;;;;;19.40;11.40;;;;;;;-11.10;60.97;101773.90;111230;243;38411;-65
2024/01/08 05:43:09;;;;;;;15.50;10.90;;;;;;;-11.12;61.15;101779.84;111288;243;38333;-65
2024/01/08 05:45:46;;;;;;;18.10;11.10;;;;;;;-11.15;61.07;101782.14;111241;243;38465;-65
2024/01/08 05:48:22;;;;;;;18.20;9.90;;;;;;;-11.20;61.08;101787.51;111241;243;38235;-66
2024/01/08 05:50:56;;;;;;;16.10;10.40;;;;;;;-11.25;61.10;101792.35;111247;243;40105;-65
2024/01/08 05:53:31;;;;;;;16.30;10.60;;;;;;;-11.27;61.16;101795.64;111248;243;38743;-65
2024/01/08 05:56:08;;;;;;;17.00;10.40;;;;;;;-11.27;61.18;101795.92;111016;243;312453;-66
2024/01/08 05:58:49;;;;;;;18.20;11.70;;;;;;;-11.29;61.19;101797.13;111290;243;38337;-67
2024/01/08 06:01:27;;;;;;;17.10;11.00;;;;;;;-11.30;61.09;101796.39;111243;243;38262;-67
2024/01/08 06:04:02;;;;;;;19.50;11.00;;;;;;;-11.34;61.11;101798.29;111249;243;38311;-67
2024/01/08 06:06:38;;;;;;;17.40;11.00;;;;;;;-11.36;61.04;101797.84;111269;243;39700;-67
2024/01/08 06:09:12;;;;;;;18.50;11.60;;;;;;;-11.36;61.08;101799.66;111248;243;38510;-66
2024/01/08 06:11:50;;;;;;;16.20;10.40;;;;;;;-11.37;61.07;101800.43;111224;243;38330;-67
2024/01/08 06:14:25;;;;;;;19.20;11.50;;;;;;;-11.47;60.86;101805.98;111123;243;177574;-66
2024/01/08 06:17:01;;;;;;;16.70;10.40;;;;;;;-11.49;61.07;101813.58;111263;243;38885;-67
2024/01/08 06:19:38;;;;;;;19.10;11.20;;;;;;;-11.51;60.93;101817.56;111248;243;38350;-67
2024/01/08 06:22:12;;;;;;;19.60;11.20;;;;;;;-11.60;60.95;101812.73;111217;243;38785;-65
2024/01/08 06:24:51;;;;;;;17.00;11.20;;;;;;;-11.62;61.13;101814.27;111228;243;38711;-65
2024/01/08 06:27:30;;;;;;;16.60;11.70;;;;;;;-11.63;61.08;101816.73;111245;243;38583;-65
2024/01/08 06:30:05;;;;;;;16.50;11.20;;;;;;;-11.67;61.04;101820.96;111287;243;38359;-65
2024/01/08 06:32:43;;;;;;;17.80;11.50;;;;;;;-11.72;61.15;101824.33;111315;243;38267;-65
2024/01/08 06:35:23;;;;;;;17.00;10.90;;;;;;;-11.72;61.38;101829.70;111271;243;39771;-65
2024/01/08 06:37:59;;;;;;;19.40;11.00;;;;;;;-11.64;61.60;101830.80;111309;243;38361;-66
2024/01/08 06:40:41;;;;;;;18.10;11.50;;;;;;;-11.61;61.45;101830.63;111019;244;38356;-66
2024/01/08 06:43:15;;;;;;;17.60;10.40;;;;;;;-11.60;61.42;101832.27;111025;243;38593;-66
2024/01/08 06:45:52;;;;;;;15.20;10.40;;;;;;;-11.65;61.03;101835.45;111077;243;38379;-65
2024/01/08 06:48:34;;;;;;;18.50;11.10;;;;;;;-11.70;61.20;101834.23;111050;243;38328;-65
2024/01/08 06:51:12;;;;;;;18.90;11.60;;;;;;;-11.70;61.14;101839.07;111120;243;38293;-66
2024/01/08 06:53:51;;;;;;;17.60;11.00;;;;;;;-11.78;61.18;101841.21;111079;244;38407;-66
2024/01/08 06:56:26;;;;;;;;;;;;;;;-11.77;61.32;101844.77;111119;243;38365;-66
2024/01/08 06:59:04;;;;;;;23.50;12.00;;;;;;;-11.79;61.38;101843.16;111056;244;38259;-66
2024/01/08 07:01:41;;;;;;;18.80;11.60;;;;;;;-11.76;61.60;101844.73;110956;243;176736;-66
2024/01/08 07:04:22;;;;;;;23.50;14.00;;;;;;;-11.71;61.67;101846.62;111064;244;38442;-66
2024/01/08 07:06:58;;;;;;;25.40;13.10;;;;;;;-11.66;61.65;101845.45;111083;244;38210;-65
2024/01/08 07:09:36;;;;;;;20.50;12.00;;;;;;;-11.61;61.35;101850.84;111099;244;38508;-65
2024/01/08 07:12:13;;;;;;;18.70;11.30;;;;;;;-11.60;61.51;101858.33;111086;244;38655;-65
2024/01/08 07:14:54;;;;;;;18.40;11.00;;;;;;;-11.53;61.58;101861.77;110942;244;38094;-65
2024/01/08 07:17:28;;;;;;;18.70;11.80;;;;;;;-11.48;61.48;101868.14;110937;244;38964;-65
2024/01/08 07:20:06;;;;;;;18.50;11.60;;;;;;;-11.44;61.43;101874.35;111109;243;39612;-66
2024/01/08 07:22:40;;;;;;;18.00;11.50;;;;;;;-11.39;61.33;101874.36;111127;244;38331;-65
2024/01/08 07:25:15;;;;;;;18.60;11.70;;;;;;;-11.35;61.18;101878.24;111099;243;38654;-66
2024/01/08 07:27:51;;;;;;;21.10;12.00;;;;;;;-11.33;61.08;101878.66;111149;244;38301;-66
2024/01/08 07:30:30;;;;;;;21.20;12.10;;;;;;;-11.25;61.14;101878.61;111146;244;38632;-66
2024/01/08 07:33:13;;;;;;;19.90;11.90;;;;;;;-11.17;61.07;101879.52;111126;244;38350;-66
2024/01/08 07:35:48;;;;;;;18.70;11.90;;;;;;;-11.10;60.97;101881.08;111056;244;38691;-66
2024/01/08 07:38:29;;;;;;;16.10;11.10;;;;;;;-11.05;60.83;101883.95;111107;244;38630;-66
2024/01/08 07:41:10;;;;;;;20.50;12.00;;;;;;;-10.89;60.98;101886.84;111221;243;38337;-66
2024/01/08 07:43:47;;;;;;;18.00;11.40;;;;;;;-10.73;60.72;101891.65;111210;243;38739;-66
2024/01/08 07:46:25;;;;;;;20.20;12.00;;;;;;;-10.54;60.98;101899.58;111271;243;38424;-65
2024/01/08 07:49:05;;;;;;;19.40;11.70;;;;;;;-10.34;60.42;101904.90;111188;243;38265;-66
2024/01/08 07:51:44;;;;;;;19.80;12.40;;;;;;;-10.22;60.07;101909.77;111190;243;38229;-66
2024/01/08 07:54:20;;;;;;;19.20;12.00;;;;;;;-10.10;59.70;101911.96;111241;243;38379;-66
2024/01/08 07:56:57;;;;;;;19.10;11.90;;;;;;;-10.03;59.60;101911.42;110990;243;39047;-65
2024/01/08 07:59:33;;;;;;;17.90;11.40;;;;;;;-9.92;59.67;101912.88;111231;243;38299;-65
2024/01/08 08:02:10;;;;;;;17.10;11.20;;;;;;;-9.76;59.54;101910.97;111273;243;38764;-65
2024/01/08 08:04:46;;;;;;;21.60;12.70;;;;;;;-9.68;58.78;101913.70;111247;243;38320;-65
2024/01/08 08:07:21;;;;;;;16.20;11.10;;;;;;;-9.65;58.54;101922.67;111234;243;39732;-65
2024/01/08 08:10:00;;;;;;;19.20;10.80;;;;;;;-9.72;57.77;101928.28;111293;243;38479;-66
2024/01/08 08:12:41;;;;;;;19.10;11.40;;;;;;;-9.81;58.00;101936.95;111287;243;38294;-65
2024/01/08 08:15:16;;;;;;;19.40;11.00;;;;;;;-9.76;58.68;101940.61;111284;243;38459;-66
2024/01/08 08:17:58;;;;;;;16.20;10.10;;;;;;;-9.61;58.82;101946.38;111259;243;39074;-66
2024/01/08 08:20:37;;;;;;;18.30;11.00;;;;;;;-9.57;58.47;101948.05;111295;243;38995;-66
2024/01/08 08:23:13;;;;;;;18.50;11.00;;;;;;;-9.50;58.47;101957.09;111254;243;39093;-66
2024/01/08 08:25:53;;;;;;;19.80;11.80;;;;;;;-9.41;58.24;101962.81;111270;243;38370;-66
2024/01/08 08:28:34;;;;;;;19.20;11.00;;;;;;;-9.43;57.69;101964.36;111224;243;38232;-66
2024/01/08 08:31:13;;;;;;;18.70;10.90;;;;;;;-9.42;57.70;101965.48;111258;243;38367;-66
2024/01/08 08:33:47;;;;;;;18.00;10.80;;;;;;;-9.36;58.10;101967.20;111284;243;38530;-66
2024/01/08 08:36:23;;;;;;;22.20;10.70;;;;;;;-9.26;58.01;101969.40;111289;243;38419;-66
2024/01/08 08:39:01;;;;;;;19.50;10.10;;;;;;;-9.29;57.32;101973.73;111260;243;38303;-67
2024/01/08 08:41:37;;;;;;;19.50;10.80;;;;;;;-9.30;57.59;101976.56;111042;243;39706;-66
2024/01/08 08:44:14;;;;;;;20.20;11.50;;;;;;;-9.24;57.23;101977.60;111260;243;38361;-65
2024/01/08 08:46:51;;;;;;;17.50;10.30;;;;;;;-9.31;56.94;101984.27;111002;243;39374;-66
2024/01/08 08:49:30;;;;;;;18.70;11.20;;;;;;;-9.43;56.92;101984.48;111022;243;38479;-66
2024/01/08 08:52:06;;;;;;;15.00;10.10;;;;;;;-9.43;57.28;101987.68;111268;243;38268;-66
2024/01/08 08:54:41;;;;;;;18.70;10.60;;;;;;;-9.43;56.85;101993.79;111245;243;38556;-67
2024/01/08 08:57:21;;;;;;;18.40;10.30;;;;;;;-9.44;57.09;101996.07;111309;243;38937;-65
2024/01/08 09:00:03;;;;;;;19.40;11.10;;;;;;;-9.43;57.33;102002.70;111218;243;38455;-65
2024/01/08 09:02:40;;;;;;;17.50;10.70;;;;;;;-9.40;57.29;102007.83;111303;243;38625;-65
2024/01/08 09:05:15;;;;;;;19.00;11.20;;;;;;;-9.41;57.28;102013.35;111280;243;38513;-65
2024/01/08 09:07:49;;;;;;;17.60;10.30;;;;;;;-9.41;57.05;102016.01;111282;243;38362;-65
2024/01/08 09:10:28;;;;;;;18.30;11.10;;;;;;;-9.40;57.06;102021.52;111148;243;176204;-65
2024/01/08 09:13:04;;;;;;;17.80;10.30;;;;;;;-9.32;57.36;102024.09;111263;243;37751;-65
2024/01/08 09:15:40;;;;;;;;;;;;;;;-9.24;57.34;102026.11;111025;243;38530;-65
2024/01/08 09:18:19;;;;;;;16.20;10.30;;;;;;;-9.13;57.46;102027.75;111247;243;38288;-66
2024/01/08 09:20:54;;;;;;;;;;;;;;;-8.93;56.86;102027.39;111294;243;38276;-66
2024/01/08 09:23:33;;;;;;;19.60;12.20;;;;;;;-8.82;56.79;102029.17;111118;243;176329;-66
2024/01/08 09:26:07;;;;;;;18.70;11.60;;;;;;;-8.74;56.60;102033.05;111263;243;38343;-66
2024/01/08 09:28:45;;;;;;;19.30;11.30;;;;;;;-8.76;56.27;102039.19;111281;243;38462;-66
2024/01/08 09:31:21;;;;;;;20.20;12.10;;;;;;;-8.74;56.42;102034.05;111262;243;38339;-66
2024/01/08 09:34:00;;;;;;;20.70;12.70;;;;;;;-8.76;56.25;102037.66;111238;243;37332;-66
2024/01/08 09:36:39;;;;;;;20.70;12.30;;;;;;;-8.61;56.66;102040.19;111246;243;39762;-66
2024/01/08 09:39:17;;;;;;;20.30;12.30;;;;;;;-8.37;56.56;102038.70;111188;243;38407;-66
2024/01/08 09:41:57;;;;;;;21.10;11.90;;;;;;;-8.13;55.83;102045.13;111217;243;38109;-66
2024/01/08 09:44:39;;;;;;;21.00;12.10;;;;;;;-7.95;55.27;102043.88;111230;243;38532;-67
2024/01/08 09:47:13;;;;;;;23.60;13.00;;;;;;;-7.77;55.23;102044.35;111126;243;189587;-67
2024/01/08 09:49:49;;;;;;;21.50;12.60;;;;;;;-7.62;54.75;102045.45;111282;243;38420;-67
2024/01/08 09:52:25;;;;;;;21.70;13.30;;;;;;;-7.46;54.45;102046.83;111229;243;38248;-66
2024/01/08 09:55:00;;;;;;;21.10;11.80;;;;;;;-7.21;54.60;102043.25;111196;243;38322;-66
2024/01/08 09:57:39;;;;;;;20.70;12.10;;;;;;;-7.00;53.61;102047.06;111228;243;38507;-67
2024/01/08 10:00:13;;;;;;;;;;;;;;;-6.91;52.75;102044.73;111253;243;39143;-66
2024/01/08 10:02:54;;;;;;;19.50;12.10;;;;;;;-6.92;52.87;102038.20;111114;243;175910;-65
2024/01/08 10:05:32;;;;;;;21.60;13.20;;;;;;;-6.78;52.93;102034.14;111201;243;38354;-66
2024/01/08 10:08:06;;;;;;;20.50;12.20;;;;;;;-6.63;52.55;102028.55;111243;243;38428;-67
2024/01/08 10:10:45;;;;;;;20.90;12.40;;;;;;;-6.37;52.38;102029.20;111199;243;39710;-65
2024/01/08 10:13:24;;;;;;;20.00;12.00;;;;;;;-6.12;52.41;102025.14;110975;243;39138;-70
2024/01/08 10:15:59;;;;;;;20.10;13.20;;;;;;;-5.94;51.93;102017.98;111246;243;38346;-67
2024/01/08 10:18:35;;;;;;;21.90;12.40;;;;;;;-5.70;51.77;102018.30;111222;243;38457;-66
2024/01/08 10:21:17;;;;;;;21.90;13.10;;;;;;;-5.49;51.35;102027.41;111208;243;39127;-66
2024/01/08 10:23:53;;;;;;;17.70;11.50;;;;;;;-5.36;50.93;102035.88;111243;243;39419;-68
2024/01/08 10:26:28;;;;;;;20.20;11.70;;;;;;;-5.05;51.23;102029.39;111258;243;38616;-66
2024/01/08 10:29:09;;;;;;;20.00;12.10;;;;;;;-4.89;49.79;102027.81;111235;243;39767;-67
2024/01/08 10:31:50;;;;;;;17.80;11.40;;;;;;;-4.91;49.44;102032.30;111115;243;175887;-67
2024/01/08 10:34:27;;;;;;;18.30;12.10;;;;;;;-5.11;49.07;102035.72;111226;243;40024;-67
2024/01/08 10:37:09;;;;;;;22.80;12.20;;;;;;;-5.48;49.15;102042.05;111232;243;39112;-67
2024/01/08 10:39:42;;;;;;;;;;;;;;;-5.95;49.39;102046.97;111247;243;38627;-66
2024/01/08 10:42:22;;;;;;;22.70;12.40;;;;;;;-6.37;50.26;102050.09;111256;243;38356;-67
2024/01/08 10:45:29;;;;;;;20.40;12.20;;;;;;;-6.74;50.47;102051.34;111295;243;38841;-66
2024/01/08 10:48:12;;;;;;;19.80;11.80;;;;;;;-6.99;51.50;102049.80;111237;243;37941;-68
2024/01/08 10:50:53;;;;;;;21.70;12.70;;;;;;;-7.32;51.26;102048.52;111297;243;39410;-66
2024/01/08 10:53:35;;;;;;;21.30;11.10;;;;;;;-7.70;51.77;102046.50;111207;243;39447;-66
2024/01/08 10:56:18;;;;;;;21.50;12.00;;;;;;;-7.99;52.32;102045.84;111263;243;39361;-66
2024/01/08 10:59:01;;;;;;;20.10;10.70;;;;;;;-8.17;52.76;102046.91;111233;243;38366;-66
2024/01/08 11:01:38;;;;;;;19.20;10.90;;;;;;;-8.33;53.36;102044.05;111216;243;39549;-66
2024/01/08 11:04:14;;;;;;;19.50;11.40;;;;;;;-8.42;53.67;102050.09;111226;243;38370;-66
2024/01/08 11:06:52;;;;;;;18.10;10.90;;;;;;;-8.47;54.20;102053.14;111250;243;38316;-66
2024/01/08 11:09:33;;;;;;;19.20;10.70;;;;;;;-8.49;54.54;102054.16;111271;243;38323;-66
2024/01/08 11:12:16;;;;;;;20.00;10.80;;;;;;;-8.48;54.40;102056.61;111206;243;38330;-66
2024/01/08 11:14:54;;;;;;;17.90;10.20;;;;;;;-8.51;54.56;102058.27;111242;243;38325;-66
2024/01/08 11:17:32;;;;;;;22.30;11.70;;;;;;;-8.50;54.78;102058.52;111021;243;38314;-66
2024/01/08 11:20:09;;;;;;;18.90;11.90;;;;;;;-8.49;54.79;102053.48;111300;243;38910;-66
2024/01/08 11:22:44;;;;;;;17.50;10.30;;;;;;;-8.45;54.80;102054.60;111235;243;39308;-67
2024/01/08 11:25:21;;;;;;;18.10;10.70;;;;;;;-8.49;55.02;102051.12;111253;243;38742;-66
2024/01/08 11:27:59;;;;;;;25.20;14.20;;;;;;;-8.41;55.00;102045.77;111252;243;38266;-66
2024/01/08 11:30:36;;;;;;;21.20;11.30;;;;;;;-8.35;54.79;102046.58;111235;243;38303;-66
2024/01/08 11:33:31;;;;;;;19.30;11.00;;;;;;;-8.45;54.60;102048.86;111216;243;38752;-67
2024/01/08 11:36:21;;;;;;;22.70;12.30;;;;;;;-8.55;55.09;102050.36;111268;243;40131;-66
2024/01/08 11:39:13;;;;;;;25.80;12.60;;;;;;;-8.55;55.35;102053.24;111210;243;38624;-66
2024/01/08 11:41:47;;;;;;;31.70;16.50;;;;;;;-8.56;55.33;102048.25;111236;243;39765;-66
2024/01/08 11:44:26;;;;;;;24.70;14.70;;;;;;;-8.62;55.40;102043.84;111215;243;38307;-66
2024/01/08 11:47:03;;;;;;;25.70;13.50;;;;;;;-8.71;55.48;102042.05;111259;243;38280;-67
2024/01/08 11:49:57;;;;;;;20.80;11.40;;;;;;;-8.81;55.76;102051.39;110525;243;949732;-66
2024/01/08 11:52:34;;;;;;;21.40;12.20;;;;;;;-8.87;55.96;102052.14;111240;243;38327;-66
2024/01/08 11:55:11;;;;;;;29.00;14.20;;;;;;;-8.84;56.18;102052.34;111262;243;39451;-66